createdAt,value
2022-11-29T00:00:08.455Z,38.9920
2022-11-29T00:01:08.843Z,38.9430
2022-11-29T00:02:11.067Z,38.9260
2022-11-29T00:03:13.489Z,38.9370
2022-11-29T00:04:15.682Z,38.9200
2022-11-29T00:05:18.028Z,38.9690
2022-11-29T00:06:20.093Z,39.0200
2022-11-29T00:07:20.692Z,39.0370
2022-11-29T00:08:22.944Z,39.0370
2022-11-29T00:09:23.147Z,38.9670
2022-11-29T00:10:25.401Z,38.9270
2022-11-29T00:11:27.738Z,39.0010
2022-11-29T00:12:30.096Z,39.1160
2022-11-29T00:13:32.479Z,39.1120
2022-11-29T00:14:32.736Z,39.1580
2022-11-29T00:15:35.118Z,39.1340
2022-11-29T00:16:37.572Z,39.0910
2022-11-29T00:17:39.884Z,39.0650
2022-11-29T00:18:40.107Z,39.0010
2022-11-29T00:19:42.480Z,38.9430
2022-11-29T00:20:44.826Z,38.9800
2022-11-29T00:21:47.193Z,38.9480
2022-11-29T00:22:49.509Z,38.9430
2022-11-29T00:23:51.846Z,38.9240
2022-11-29T00:24:52.009Z,38.8910
2022-11-29T00:25:54.349Z,38.8180
2022-11-29T00:26:56.832Z,38.8020
2022-11-29T00:27:59.017Z,38.8770
2022-11-29T00:29:01.331Z,38.8160
2022-11-29T00:30:01.566Z,38.8030
2022-11-29T00:31:03.960Z,38.8190
2022-11-29T00:32:06.434Z,38.8410
2022-11-29T00:33:08.669Z,38.9180
2022-11-29T00:34:11.051Z,38.9240
2022-11-29T00:35:11.260Z,38.9060
2022-11-29T00:36:13.629Z,38.8950
2022-11-29T00:37:16.017Z,38.9060
2022-11-29T00:38:18.307Z,38.8710
2022-11-29T00:39:20.598Z,38.9150
2022-11-29T00:40:20.767Z,38.9460
2022-11-29T00:41:23.072Z,38.9180
2022-11-29T00:42:25.546Z,38.9120
2022-11-29T00:43:27.758Z,38.8470
2022-11-29T00:44:30.115Z,38.9070
2022-11-29T00:45:32.438Z,38.9750
2022-11-29T00:46:34.720Z,39.0210
2022-11-29T00:47:37.141Z,39.0510
2022-11-29T00:48:39.291Z,39.0840
2022-11-29T00:49:41.561Z,38.9970
2022-11-29T00:50:43.808Z,39.0160
2022-11-29T00:51:46.026Z,39.0160
2022-11-29T00:52:46.285Z,39.0270
2022-11-29T00:53:48.432Z,39.0390
2022-11-29T00:55:49.906Z,39.0670
2022-11-29T00:56:52.131Z,39.0400
2022-11-29T00:57:53.371Z,39.0950
2022-11-29T00:58:54.508Z,39.0820
2022-11-29T00:59:56.798Z,39.0220
2022-11-29T01:00:59.205Z,39.0230
2022-11-29T01:02:01.408Z,39.0070
2022-11-29T01:03:03.733Z,39.0130
2022-11-29T01:04:03.840Z,39.0430
2022-11-29T01:05:06.165Z,38.9940
2022-11-29T01:06:08.522Z,39.0230
2022-11-29T01:07:10.848Z,39.0230
2022-11-29T01:08:13.304Z,38.9690
2022-11-29T01:09:15.527Z,38.9920
2022-11-29T01:10:15.706Z,38.9180
2022-11-29T01:11:18.039Z,38.9420
2022-11-29T01:12:20.307Z,38.9030
2022-11-29T01:13:22.653Z,38.8600
2022-11-29T01:14:22.832Z,38.8130
2022-11-29T01:15:25.188Z,38.8820
2022-11-29T01:16:27.662Z,38.8740
2022-11-29T01:17:29.918Z,38.8700
2022-11-29T01:18:30.151Z,38.8370
2022-11-29T01:19:32.473Z,38.8530
2022-11-29T01:20:34.836Z,38.8190
2022-11-29T01:21:37.193Z,38.7940
2022-11-29T01:22:39.549Z,38.7670
2022-11-29T01:23:39.693Z,38.8110
2022-11-29T01:24:42.363Z,38.8080
2022-11-29T01:25:44.286Z,38.8110
2022-11-29T01:26:46.610Z,38.8220
2022-11-29T01:27:46.780Z,38.8220
2022-11-29T01:28:49.250Z,38.7990
2022-11-29T01:29:49.279Z,38.8210
2022-11-29T01:30:51.628Z,38.7930
2022-11-29T01:31:53.950Z,38.8980
2022-11-29T01:32:56.260Z,38.8930
2022-11-29T01:33:58.609Z,38.8930
2022-11-29T01:35:00.918Z,38.9040
2022-11-29T01:36:01.099Z,38.9380
2022-11-29T01:37:03.434Z,38.8440
2022-11-29T01:38:05.738Z,38.8270
2022-11-29T01:39:08.114Z,38.8610
2022-11-29T01:40:08.259Z,38.9280
2022-11-29T01:41:10.610Z,38.9210
2022-11-29T01:42:12.936Z,38.9530
2022-11-29T01:43:15.282Z,38.8680
2022-11-29T01:44:17.632Z,38.7820
2022-11-29T01:45:19.967Z,38.7530
2022-11-29T01:46:20.176Z,38.7400
2022-11-29T01:47:22.548Z,38.7400
2022-11-29T01:48:24.882Z,38.7200
2022-11-29T01:49:27.294Z,38.6740
2022-11-29T01:50:29.525Z,38.6630
2022-11-29T01:51:29.718Z,38.6860
2022-11-29T01:52:32.021Z,38.6390
2022-11-29T01:53:34.347Z,38.6820
2022-11-29T01:54:36.696Z,38.7730
2022-11-29T01:55:39.030Z,38.8170
2022-11-29T01:56:39.164Z,38.8670
2022-11-29T01:57:41.516Z,38.8520
2022-11-29T01:58:43.759Z,38.8370
2022-11-29T01:59:46.092Z,38.8380
2022-11-29T02:00:48.378Z,38.7680
2022-11-29T02:01:50.699Z,38.7800
2022-11-29T02:02:53.119Z,38.7800
2022-11-29T02:03:53.250Z,38.8710
2022-11-29T02:04:55.580Z,38.8890
2022-11-29T02:05:57.873Z,38.8190
2022-11-29T02:07:00.180Z,38.7510
2022-11-29T02:08:02.537Z,38.7810
2022-11-29T02:09:02.755Z,38.8290
2022-11-29T02:10:05.273Z,38.7740
2022-11-29T02:11:07.503Z,38.7730
2022-11-29T02:12:09.905Z,38.7900
2022-11-29T02:13:12.292Z,38.8120
2022-11-29T02:14:14.655Z,38.7900
2022-11-29T02:15:17.054Z,38.8300
2022-11-29T02:16:19.426Z,38.8120
2022-11-29T02:17:19.592Z,38.8230
2022-11-29T02:18:21.994Z,38.7360
2022-11-29T02:19:24.304Z,38.6920
2022-11-29T02:20:26.688Z,38.7300
2022-11-29T02:21:28.980Z,38.7340
2022-11-29T02:22:29.210Z,38.7770
2022-11-29T02:23:31.581Z,38.8750
2022-11-29T02:24:33.969Z,38.9620
2022-11-29T02:25:36.487Z,38.8570
2022-11-29T02:26:38.725Z,38.8210
2022-11-29T02:27:38.937Z,38.8030
2022-11-29T02:28:41.321Z,38.7700
2022-11-29T02:29:43.658Z,38.8460
2022-11-29T02:30:46.263Z,38.8710
2022-11-29T02:31:46.234Z,38.8240
2022-11-29T02:32:48.627Z,38.8320
2022-11-29T02:33:51.024Z,38.7970
2022-11-29T02:34:53.397Z,38.7700
2022-11-29T02:35:55.816Z,38.7580
2022-11-29T02:36:56.030Z,38.7770
2022-11-29T02:37:58.415Z,38.8400
2022-11-29T02:39:00.826Z,38.8240
2022-11-29T02:40:03.227Z,38.7760
2022-11-29T02:41:03.519Z,38.7860
2022-11-29T02:42:05.815Z,38.7760
2022-11-29T02:43:08.175Z,38.8190
2022-11-29T02:44:10.531Z,38.8480
2022-11-29T02:45:10.751Z,38.8130
2022-11-29T02:46:13.200Z,38.7760
2022-11-29T02:47:15.403Z,38.7810
2022-11-29T02:48:17.721Z,38.7610
2022-11-29T02:49:20.115Z,38.7150
2022-11-29T02:50:20.245Z,38.7630
2022-11-29T02:51:22.711Z,38.8150
2022-11-29T02:52:24.882Z,38.7500
2022-11-29T02:53:27.227Z,38.7140
2022-11-29T02:54:29.539Z,38.7340
2022-11-29T02:55:29.704Z,38.7630
2022-11-29T02:56:32.014Z,38.8100
2022-11-29T02:57:34.309Z,38.7690
2022-11-29T02:58:36.649Z,38.7500
2022-11-29T02:59:39.002Z,38.8140
2022-11-29T03:00:41.329Z,38.8100
2022-11-29T03:01:41.616Z,38.7830
2022-11-29T03:02:43.875Z,38.8250
2022-11-29T03:03:46.128Z,38.7540
2022-11-29T03:04:48.492Z,38.7830
2022-11-29T03:05:50.781Z,38.7540
2022-11-29T03:06:53.150Z,38.6900
2022-11-29T03:07:53.399Z,38.7370
2022-11-29T03:08:55.711Z,38.7370
2022-11-29T03:09:58.086Z,38.6760
2022-11-29T03:11:00.399Z,38.6730
2022-11-29T03:12:02.770Z,38.8210
2022-11-29T03:13:02.912Z,38.8600
2022-11-29T03:14:05.239Z,38.9100
2022-11-29T03:15:07.536Z,38.8860
2022-11-29T03:16:09.933Z,38.7990
2022-11-29T03:17:12.227Z,38.7820
2022-11-29T03:18:12.386Z,38.7060
2022-11-29T03:19:14.675Z,38.7700
2022-11-29T03:20:17.030Z,38.7600
2022-11-29T03:21:19.342Z,38.7530
2022-11-29T03:22:21.777Z,38.7750
2022-11-29T03:23:23.997Z,38.7400
2022-11-29T03:24:24.190Z,38.7530
2022-11-29T03:25:26.564Z,38.8990
2022-11-29T03:26:28.864Z,38.8650
2022-11-29T03:27:31.233Z,38.8150
2022-11-29T03:28:33.512Z,38.7970
2022-11-29T03:29:33.700Z,38.7280
2022-11-29T03:31:19.208Z,38.8620
2022-11-29T03:32:21.455Z,38.8360
2022-11-29T03:33:23.933Z,38.7800
2022-11-29T03:34:26.131Z,38.8270
2022-11-29T03:35:28.512Z,38.8440
2022-11-29T03:36:28.676Z,38.8450
2022-11-29T03:37:30.991Z,38.8510
2022-11-29T03:38:33.421Z,38.8560
2022-11-29T03:39:35.617Z,38.7280
2022-11-29T03:40:37.903Z,38.6730
2022-11-29T03:41:40.246Z,38.7170
2022-11-29T03:42:40.437Z,38.7530
2022-11-29T03:43:42.943Z,38.7530
2022-11-29T03:44:45.471Z,38.7790
2022-11-29T03:45:47.503Z,38.8570
2022-11-29T03:46:49.860Z,38.8780
2022-11-29T03:47:50.036Z,38.8270
2022-11-29T03:48:52.479Z,38.7960
2022-11-29T03:49:54.634Z,38.7200
2022-11-29T03:50:57.001Z,38.7030
2022-11-29T03:51:59.239Z,38.6570
2022-11-29T03:53:01.493Z,38.6710
2022-11-29T03:54:03.833Z,38.6680
2022-11-29T03:55:03.980Z,38.6380
2022-11-29T03:56:06.269Z,38.6340
2022-11-29T03:57:08.555Z,38.6450
2022-11-29T03:58:10.865Z,38.7050
2022-11-29T03:59:13.325Z,38.7330
2022-11-29T04:00:15.563Z,38.7190
2022-11-29T04:01:15.834Z,38.7330
2022-11-29T04:02:18.206Z,38.6880
2022-11-29T04:03:20.535Z,38.6730
2022-11-29T04:04:22.951Z,38.6880
2022-11-29T04:05:25.303Z,38.6790
2022-11-29T04:06:27.680Z,38.7470
2022-11-29T04:07:30.068Z,38.7680
2022-11-29T04:08:32.386Z,38.7680
2022-11-29T04:09:32.656Z,38.6550
2022-11-29T04:10:34.976Z,38.6250
2022-11-29T04:11:37.340Z,38.6130
2022-11-29T04:12:39.727Z,38.6190
2022-11-29T04:13:42.095Z,38.6620
2022-11-29T04:14:42.615Z,38.6050
2022-11-29T04:15:44.688Z,38.6420
2022-11-29T04:16:46.970Z,38.7180
2022-11-29T04:17:49.289Z,38.7060
2022-11-29T04:18:51.632Z,38.7750
2022-11-29T04:19:51.968Z,38.8230
2022-11-29T04:20:54.165Z,38.7880
2022-11-29T04:21:56.515Z,38.7800
2022-11-29T04:22:58.779Z,38.8560
2022-11-29T04:24:01.102Z,38.7660
2022-11-29T04:25:03.471Z,38.8400
2022-11-29T04:26:03.603Z,38.9250
2022-11-29T04:27:05.949Z,38.9390
2022-11-29T04:28:08.282Z,38.9720
2022-11-29T04:29:10.621Z,38.9110
2022-11-29T04:30:13.220Z,38.8780
2022-11-29T04:31:13.188Z,38.9700
2022-11-29T04:32:13.319Z,38.8750
2022-11-29T04:33:15.705Z,38.7500
2022-11-29T04:34:18.076Z,38.8270
2022-11-29T04:35:20.467Z,38.9270
2022-11-29T04:36:20.664Z,39.0500
2022-11-29T04:37:23.073Z,39.0790
2022-11-29T04:38:25.435Z,39.1150
2022-11-29T04:39:27.839Z,39.0100
2022-11-29T04:40:28.068Z,39.0350
2022-11-29T04:41:30.397Z,38.9920
2022-11-29T04:42:32.802Z,38.9480
2022-11-29T04:43:35.146Z,38.8620
2022-11-29T04:44:35.368Z,38.8320
2022-11-29T04:45:37.905Z,38.8570
2022-11-29T04:46:40.167Z,38.9440
2022-11-29T04:47:42.416Z,38.9390
2022-11-29T04:48:44.752Z,38.9390
2022-11-29T04:49:44.930Z,38.9270
2022-11-29T04:50:47.302Z,38.8700
2022-11-29T04:51:49.612Z,38.8820
2022-11-29T04:52:51.977Z,38.6730
2022-11-29T04:53:54.324Z,38.6520
2022-11-29T04:54:54.521Z,38.8270
2022-11-29T04:55:56.915Z,38.8820
2022-11-29T04:56:59.171Z,38.8320
2022-11-29T04:58:01.468Z,38.8340
2022-11-29T04:59:03.774Z,38.8980
2022-11-29T05:00:06.113Z,38.8820
2022-11-29T05:01:06.331Z,38.8460
2022-11-29T05:02:08.667Z,38.8730
2022-11-29T05:03:11.001Z,38.9720
2022-11-29T05:04:13.339Z,38.9580
2022-11-29T05:05:15.634Z,38.9530
2022-11-29T05:06:15.849Z,38.9550
2022-11-29T05:07:18.186Z,39.0530
2022-11-29T05:08:20.499Z,39.2370
2022-11-29T05:09:20.669Z,39.3540
2022-11-29T05:10:23.025Z,39.4810
2022-11-29T05:11:26.679Z,39.5590
2022-11-29T05:12:25.591Z,39.5890
2022-11-29T05:13:27.967Z,39.6930
2022-11-29T05:14:30.330Z,39.7170
2022-11-29T05:15:32.714Z,39.7190
2022-11-29T05:16:32.980Z,39.7440
2022-11-29T05:17:35.316Z,39.7910
2022-11-29T05:18:37.676Z,39.7160
2022-11-29T05:19:40.030Z,39.7880
2022-11-29T05:20:40.261Z,39.8120
2022-11-29T05:21:42.601Z,39.8710
2022-11-29T05:22:44.912Z,39.9060
2022-11-29T05:23:47.249Z,39.9120
2022-11-29T05:24:49.588Z,39.9060
2022-11-29T05:25:49.832Z,39.8550
2022-11-29T05:26:52.321Z,39.9370
2022-11-29T05:27:54.579Z,39.9750
2022-11-29T05:29:35.711Z,40.0770
2022-11-29T05:30:37.962Z,40.0570
2022-11-29T05:31:40.277Z,40.0380
2022-11-29T05:32:40.460Z,40.0800
2022-11-29T05:33:42.763Z,40.0590
2022-11-29T05:34:45.089Z,40.0370
2022-11-29T05:35:47.443Z,40.0720
2022-11-29T05:36:49.742Z,40.0880
2022-11-29T05:37:52.113Z,39.8530
2022-11-29T05:38:52.313Z,38.9140
2022-11-29T05:39:54.642Z,39.2370
2022-11-29T05:40:56.995Z,39.6540
2022-11-29T05:41:59.364Z,39.7530
2022-11-29T05:43:01.751Z,39.4070
2022-11-29T05:44:01.925Z,39.4660
2022-11-29T05:45:04.273Z,39.5710
2022-11-29T05:46:06.678Z,39.6830
2022-11-29T05:47:08.961Z,39.6900
2022-11-29T05:48:11.399Z,39.6280
2022-11-29T05:49:11.417Z,39.6850
2022-11-29T05:50:13.785Z,39.7120
2022-11-29T05:51:16.157Z,39.6960
2022-11-29T05:52:18.537Z,39.7020
2022-11-29T05:53:21.051Z,39.5730
2022-11-29T05:54:21.173Z,39.5770
2022-11-29T05:55:23.521Z,39.5380
2022-11-29T05:56:25.889Z,39.5590
2022-11-29T05:57:28.212Z,39.6350
2022-11-29T05:58:30.564Z,39.6420
2022-11-29T05:59:30.801Z,39.6000
2022-11-29T06:00:33.198Z,39.5290
2022-11-29T06:01:35.642Z,39.5320
2022-11-29T06:02:37.986Z,39.5530
2022-11-29T06:03:38.222Z,39.5010
2022-11-29T06:04:40.597Z,39.5340
2022-11-29T06:05:43.006Z,39.5230
2022-11-29T06:06:43.256Z,39.6100
2022-11-29T06:07:45.667Z,39.5810
2022-11-29T06:08:47.992Z,39.6160
2022-11-29T06:09:50.309Z,39.5320
2022-11-29T06:10:52.647Z,39.6040
2022-11-29T06:11:52.808Z,39.5610
2022-11-29T06:12:55.183Z,39.5240
2022-11-29T06:13:57.538Z,39.4770
2022-11-29T06:14:59.883Z,39.4350
2022-11-29T06:16:02.290Z,39.4270
2022-11-29T06:17:02.369Z,39.4500
2022-11-29T06:18:04.691Z,39.4580
2022-11-29T06:19:07.143Z,39.4130
2022-11-29T06:20:09.342Z,39.3800
2022-11-29T06:21:11.680Z,39.3410
2022-11-29T06:22:11.856Z,39.3560
2022-11-29T06:23:14.201Z,39.2880
2022-11-29T06:24:19.429Z,39.3780
2022-11-29T06:25:18.879Z,39.4170
2022-11-29T06:26:21.186Z,39.4130
2022-11-29T06:27:23.527Z,39.3920
2022-11-29T06:28:23.716Z,39.3950
2022-11-29T06:29:26.164Z,39.4400
2022-11-29T06:30:28.370Z,39.4710
2022-11-29T06:31:30.713Z,39.4500
2022-11-29T06:32:32.938Z,39.3560
2022-11-29T06:33:35.267Z,39.4500
2022-11-29T06:34:35.512Z,39.4560
2022-11-29T06:35:37.816Z,39.5160
2022-11-29T06:36:40.155Z,39.4520
2022-11-29T06:37:42.513Z,39.4190
2022-11-29T06:38:44.819Z,39.1830
2022-11-29T06:39:45.014Z,39.2820
2022-11-29T06:40:47.259Z,39.3000
2022-11-29T06:41:49.528Z,39.3120
2022-11-29T06:42:51.804Z,39.2340
2022-11-29T06:43:54.135Z,39.1700
2022-11-29T06:44:56.451Z,39.2750
2022-11-29T06:45:56.610Z,39.4180
2022-11-29T06:46:58.982Z,39.4750
2022-11-29T06:48:01.267Z,39.6070
2022-11-29T06:49:03.607Z,39.6190
2022-11-29T06:50:06.081Z,39.7050
2022-11-29T06:51:08.242Z,39.7450
2022-11-29T06:52:08.405Z,39.6360
2022-11-29T06:53:10.724Z,39.5820
2022-11-29T06:54:13.008Z,39.6550
2022-11-29T06:55:15.430Z,39.6790
2022-11-29T06:56:17.603Z,39.5440
2022-11-29T06:57:19.852Z,39.5340
2022-11-29T06:58:20.056Z,39.6100
2022-11-29T06:59:22.385Z,39.5710
2022-11-29T07:00:24.757Z,39.5620
2022-11-29T07:01:27.036Z,39.7220
2022-11-29T07:02:29.433Z,39.7030
2022-11-29T07:03:31.753Z,39.6970
2022-11-29T07:04:32.002Z,39.7960
2022-11-29T07:05:34.397Z,39.7450
2022-11-29T07:06:36.733Z,39.7690
2022-11-29T07:07:39.182Z,39.7570
2022-11-29T07:08:39.362Z,39.6730
2022-11-29T07:09:41.747Z,39.5710
2022-11-29T07:10:44.173Z,39.6250
2022-11-29T07:11:46.515Z,39.6750
2022-11-29T07:12:46.705Z,39.7120
2022-11-29T07:13:49.092Z,39.6750
2022-11-29T07:14:51.425Z,39.7120
2022-11-29T07:15:53.867Z,39.6500
2022-11-29T07:16:57.590Z,39.6740
2022-11-29T07:17:58.541Z,39.6450
2022-11-29T07:18:59.796Z,39.6040
2022-11-29T07:20:02.162Z,39.7670
2022-11-29T07:21:04.626Z,39.9140
2022-11-29T07:22:06.834Z,40.0390
2022-11-29T07:23:09.228Z,40.1130
2022-11-29T07:24:09.412Z,40.2460
2022-11-29T07:25:11.794Z,40.1990
2022-11-29T07:26:14.170Z,40.1930
2022-11-29T07:27:14.360Z,40.1460
2022-11-29T07:28:16.722Z,40.1340
2022-11-29T07:29:19.087Z,40.1070
2022-11-29T07:30:19.287Z,40.0170
2022-11-29T07:31:21.688Z,40.0370
2022-11-29T07:32:23.975Z,40.0860
2022-11-29T07:33:26.303Z,40.0730
2022-11-29T07:34:28.629Z,40.0070
2022-11-29T07:35:31.002Z,40.0660
2022-11-29T07:36:31.224Z,40.0560
2022-11-29T07:37:33.579Z,39.8680
2022-11-29T07:38:36.042Z,39.8020
2022-11-29T07:39:36.218Z,39.9230
2022-11-29T07:40:38.526Z,39.9390
2022-11-29T07:41:40.945Z,39.8940
2022-11-29T07:42:41.138Z,39.8720
2022-11-29T07:43:43.475Z,40.0080
2022-11-29T07:44:46.029Z,40.0990
2022-11-29T07:45:48.192Z,40.1070
2022-11-29T07:46:50.679Z,40.0720
2022-11-29T07:47:52.978Z,40.0370
2022-11-29T07:48:53.111Z,40.0370
2022-11-29T07:49:55.475Z,39.9740
2022-11-29T07:50:57.777Z,40.0440
2022-11-29T07:51:58.033Z,39.9770
2022-11-29T07:53:00.362Z,39.9530
2022-11-29T07:54:02.774Z,39.9650
2022-11-29T07:55:03.011Z,40.0070
2022-11-29T07:56:05.419Z,39.9420
2022-11-29T07:57:07.801Z,39.9090
2022-11-29T07:58:07.977Z,39.8950
2022-11-29T07:59:10.280Z,39.9680
2022-11-29T08:00:12.700Z,39.9840
2022-11-29T08:01:12.977Z,40.0010
2022-11-29T08:02:15.408Z,39.9380
2022-11-29T08:03:17.698Z,39.7950
2022-11-29T08:04:17.839Z,39.7210
2022-11-29T08:05:20.198Z,39.8000
2022-11-29T08:06:22.583Z,39.8510
2022-11-29T08:07:22.889Z,39.9260
2022-11-29T08:08:25.174Z,39.9740
2022-11-29T08:09:27.529Z,39.8930
2022-11-29T08:10:27.747Z,39.8410
2022-11-29T08:12:06.972Z,39.6820
2022-11-29T08:13:09.048Z,39.5790
2022-11-29T08:14:11.372Z,39.5040
2022-11-29T08:15:11.533Z,39.5070
2022-11-29T08:16:13.834Z,39.5480
2022-11-29T08:17:16.120Z,39.5310
2022-11-29T08:18:18.541Z,39.5070
2022-11-29T08:19:20.687Z,39.4680
2022-11-29T08:20:23.018Z,39.4230
2022-11-29T08:21:23.214Z,39.4230
2022-11-29T08:22:25.530Z,39.2840
2022-11-29T08:23:27.943Z,39.2820
2022-11-29T08:24:30.132Z,39.3660
2022-11-29T08:25:32.490Z,39.4290
2022-11-29T08:26:34.822Z,39.3630
2022-11-29T08:27:34.977Z,39.4520
2022-11-29T08:28:37.436Z,39.3920
2022-11-29T08:29:39.682Z,39.3840
2022-11-29T08:30:41.970Z,39.3280
2022-11-29T08:31:44.466Z,39.2940
2022-11-29T08:32:49.920Z,39.3780
2022-11-29T08:33:46.946Z,39.4850
2022-11-29T08:34:49.108Z,39.3900
2022-11-29T08:35:51.404Z,39.3390
2022-11-29T08:36:53.699Z,39.3230
2022-11-29T08:37:55.999Z,39.3060
2022-11-29T08:39:05.939Z,39.3780
2022-11-29T08:39:58.531Z,39.3060
2022-11-29T08:41:00.845Z,39.2990
2022-11-29T08:42:03.229Z,39.2490
2022-11-29T08:43:05.424Z,39.2390
2022-11-29T08:44:07.786Z,39.2120
2022-11-29T08:45:10.124Z,39.1940
2022-11-29T08:46:15.128Z,39.1750
2022-11-29T08:47:12.606Z,39.2300
2022-11-29T08:48:14.998Z,39.2450
2022-11-29T08:49:15.157Z,39.1470
2022-11-29T08:50:17.461Z,39.1240
2022-11-29T08:51:19.886Z,39.1120
2022-11-29T08:52:22.103Z,39.1810
2022-11-29T08:53:22.286Z,39.2510
2022-11-29T08:54:24.739Z,39.3170
2022-11-29T08:55:26.971Z,39.3280
2022-11-29T08:57:16.749Z,39.3220
2022-11-29T08:57:39.885Z,39.3290
2022-11-29T08:58:31.839Z,39.3930
2022-11-29T08:59:35.052Z,39.4430
2022-11-29T09:00:36.501Z,39.4190
2022-11-29T09:01:38.845Z,39.2620
2022-11-29T09:02:41.235Z,39.1930
2022-11-29T09:03:43.529Z,39.2010
2022-11-29T09:04:43.920Z,39.1590
2022-11-29T09:05:46.067Z,39.2160
2022-11-29T09:06:48.420Z,39.2980
2022-11-29T09:07:50.802Z,39.2730
2022-11-29T09:08:53.046Z,39.2500
2022-11-29T09:09:55.441Z,39.2610
2022-11-29T09:10:55.530Z,39.2260
2022-11-29T09:11:57.843Z,39.1160
2022-11-29T09:13:00.188Z,39.1100
2022-11-29T09:14:02.522Z,39.1100
2022-11-29T09:15:02.745Z,39.1160
2022-11-29T09:16:05.112Z,39.1000
2022-11-29T09:17:07.403Z,39.1400
2022-11-29T09:18:09.706Z,39.1590
2022-11-29T09:19:12.032Z,39.1820
2022-11-29T09:20:14.486Z,39.0850
2022-11-29T09:21:14.562Z,39.1760
2022-11-29T09:22:16.868Z,39.1390
2022-11-29T09:23:19.175Z,39.2050
2022-11-29T09:24:21.522Z,39.2730
2022-11-29T09:25:23.899Z,39.2660
2022-11-29T09:26:24.017Z,39.1600
2022-11-29T09:27:26.336Z,39.1340
2022-11-29T09:28:28.673Z,39.1500
2022-11-29T09:29:31.006Z,39.1210
2022-11-29T09:30:33.360Z,39.1060
2022-11-29T09:31:33.615Z,39.1150
2022-11-29T09:32:35.827Z,39.1600
2022-11-29T09:33:38.129Z,39.2240
2022-11-29T09:34:40.415Z,39.1970
2022-11-29T09:35:42.776Z,39.1770
2022-11-29T09:36:45.023Z,39.2050
2022-11-29T09:37:45.153Z,39.2040
2022-11-29T09:38:47.417Z,39.2300
2022-11-29T09:39:49.749Z,39.3290
2022-11-29T09:40:52.236Z,39.3740
2022-11-29T09:41:54.438Z,39.3310
2022-11-29T09:42:56.791Z,39.2620
2022-11-29T09:43:56.979Z,39.2100
2022-11-29T09:44:59.367Z,39.2020
2022-11-29T09:46:01.839Z,39.1260
2022-11-29T09:47:04.099Z,39.1970
2022-11-29T09:48:06.462Z,39.2850
2022-11-29T09:49:06.634Z,39.2100
2022-11-29T09:50:08.987Z,39.2210
2022-11-29T09:51:11.450Z,39.1860
2022-11-29T09:52:13.697Z,39.2090
2022-11-29T09:53:16.008Z,39.1570
2022-11-29T09:54:16.220Z,39.1260
2022-11-29T09:55:18.573Z,39.0380
2022-11-29T09:56:21.101Z,39.0240
2022-11-29T09:57:23.303Z,39.0500
2022-11-29T09:58:25.708Z,39.0900
2022-11-29T09:59:25.880Z,39.0710
2022-11-29T10:00:28.235Z,39.1080
2022-11-29T10:01:30.683Z,39.1800
2022-11-29T10:02:33.069Z,39.1620
2022-11-29T10:03:33.209Z,39.2370
2022-11-29T10:04:35.568Z,39.2340
2022-11-29T10:05:37.909Z,39.2460
2022-11-29T10:06:40.310Z,39.2790
2022-11-29T10:08:50.327Z,39.3410
2022-11-29T10:10:51.922Z,39.1970
2022-11-29T10:11:54.692Z,39.2180
2022-11-29T10:12:56.335Z,39.2120
2022-11-29T10:13:56.512Z,39.1950
2022-11-29T10:14:58.793Z,39.1210
2022-11-29T10:16:01.099Z,39.1680
2022-11-29T10:17:03.548Z,39.1560
2022-11-29T10:18:05.779Z,39.0050
2022-11-29T10:19:05.891Z,38.9590
2022-11-29T10:20:08.256Z,39.0310
2022-11-29T10:21:10.522Z,39.2000
2022-11-29T10:22:12.967Z,39.1910
2022-11-29T10:23:15.286Z,39.2970
2022-11-29T10:24:17.494Z,39.2760
2022-11-29T10:25:17.688Z,39.3000
2022-11-29T10:26:19.969Z,39.2840
2022-11-29T10:27:22.306Z,39.2670
2022-11-29T10:28:24.641Z,39.2180
2022-11-29T10:29:26.969Z,39.2120
2022-11-29T10:30:29.439Z,39.1450
2022-11-29T10:31:29.570Z,39.0640
2022-11-29T10:32:31.942Z,38.9780
2022-11-29T10:33:34.282Z,38.8870
2022-11-29T10:34:36.580Z,38.8550
2022-11-29T10:35:38.860Z,38.8000
2022-11-29T10:36:39.057Z,38.9240
2022-11-29T10:37:41.405Z,38.9420
2022-11-29T10:38:43.699Z,38.9360
2022-11-29T10:39:46.005Z,38.8850
2022-11-29T10:40:48.314Z,38.8630
2022-11-29T10:41:48.456Z,38.8960
2022-11-29T10:42:50.856Z,38.8750
2022-11-29T10:43:53.151Z,38.8990
2022-11-29T10:44:55.477Z,39.0000
2022-11-29T10:45:57.870Z,38.9470
2022-11-29T10:47:00.123Z,38.9530
2022-11-29T10:48:00.321Z,38.9580
2022-11-29T10:49:02.656Z,38.9020
2022-11-29T10:50:04.951Z,38.8440
2022-11-29T10:51:07.298Z,38.8260
2022-11-29T10:52:09.559Z,38.8280
2022-11-29T10:53:09.897Z,38.8110
2022-11-29T10:54:12.079Z,38.7810
2022-11-29T10:55:14.407Z,38.7990
2022-11-29T10:56:16.716Z,38.7930
2022-11-29T10:57:19.041Z,38.7570
2022-11-29T10:58:27.497Z,38.8300
2022-11-29T10:59:21.526Z,38.8160
2022-11-29T11:00:23.809Z,38.7930
2022-11-29T11:01:26.244Z,38.7990
2022-11-29T11:02:28.403Z,38.8000
2022-11-29T11:03:30.692Z,38.8500
2022-11-29T11:04:32.996Z,38.8160
2022-11-29T11:05:35.279Z,38.7750
2022-11-29T11:06:35.389Z,38.6940
2022-11-29T11:07:37.770Z,38.7190
2022-11-29T11:08:40.091Z,38.7340
2022-11-29T11:09:42.274Z,38.7250
2022-11-29T11:10:48.182Z,38.6490
2022-11-29T11:11:46.994Z,38.6770
2022-11-29T11:13:30.223Z,38.7330
2022-11-29T11:14:32.537Z,38.7000
2022-11-29T11:15:33.530Z,38.6980
2022-11-29T11:16:37.599Z,38.6980
2022-11-29T11:17:37.013Z,38.6920
2022-11-29T11:18:39.248Z,38.6490
2022-11-29T11:19:41.580Z,38.5950
2022-11-29T11:20:43.747Z,38.6140
2022-11-29T11:21:43.868Z,38.6320
2022-11-29T11:22:46.120Z,38.5940
2022-11-29T11:23:48.366Z,38.5720
2022-11-29T11:24:50.708Z,38.5780
2022-11-29T11:25:52.965Z,38.5500
2022-11-29T11:26:55.282Z,38.5020
2022-11-29T11:27:57.498Z,38.5000
2022-11-29T11:28:59.786Z,38.5660
2022-11-29T11:29:59.952Z,38.5080
2022-11-29T11:31:02.300Z,38.5350
2022-11-29T11:32:04.419Z,38.6330
2022-11-29T11:33:06.712Z,38.6440
2022-11-29T11:34:08.977Z,38.5840
2022-11-29T11:35:15.590Z,38.5660
2022-11-29T11:36:13.520Z,38.5770
2022-11-29T11:37:15.808Z,38.5770
2022-11-29T11:38:15.924Z,38.5060
2022-11-29T11:39:18.194Z,38.4190
2022-11-29T11:40:20.662Z,38.4970
2022-11-29T11:41:22.825Z,38.5630
2022-11-29T11:42:25.120Z,38.5770
2022-11-29T11:44:58.090Z,38.4700
2022-11-29T11:45:47.426Z,38.5390
2022-11-29T11:46:49.584Z,38.4740
2022-11-29T11:47:51.748Z,38.3670
2022-11-29T11:48:54.058Z,38.4620
2022-11-29T11:49:56.354Z,38.4670
2022-11-29T11:50:58.695Z,38.4200
2022-11-29T11:52:00.971Z,38.5190
2022-11-29T11:53:01.115Z,38.4300
2022-11-29T11:54:03.452Z,38.4680
2022-11-29T11:55:05.777Z,38.5180
2022-11-29T11:56:08.246Z,38.4760
2022-11-29T11:57:10.448Z,38.5300
2022-11-29T11:58:10.975Z,38.4550
2022-11-29T11:59:12.987Z,38.3500
2022-11-29T12:00:15.320Z,38.2320
2022-11-29T12:01:17.704Z,38.1430
2022-11-29T12:02:20.041Z,38.3500
2022-11-29T12:03:20.239Z,38.3320
2022-11-29T12:04:22.498Z,38.3420
2022-11-29T12:05:24.800Z,38.4450
2022-11-29T12:06:27.192Z,38.3790
2022-11-29T12:07:52.023Z,38.3780
2022-11-29T12:08:31.696Z,38.4780
2022-11-29T12:09:33.903Z,38.4210
2022-11-29T12:10:36.158Z,38.4250
2022-11-29T12:11:36.320Z,38.4810
2022-11-29T12:12:38.588Z,38.4740
2022-11-29T12:13:40.864Z,38.4620
2022-11-29T12:14:43.419Z,38.5280
2022-11-29T12:15:45.426Z,38.5530
2022-11-29T12:16:47.859Z,38.5580
2022-11-29T12:17:50.014Z,38.6180
2022-11-29T12:18:50.171Z,38.6240
2022-11-29T12:19:52.484Z,38.5920
2022-11-29T12:20:54.781Z,38.6040
2022-11-29T12:21:57.251Z,38.5820
2022-11-29T12:22:59.394Z,38.6830
2022-11-29T12:23:59.543Z,38.7330
2022-11-29T12:25:01.859Z,38.6300
2022-11-29T12:26:04.220Z,38.7070
2022-11-29T12:27:06.583Z,38.6060
2022-11-29T12:28:08.707Z,38.6580
2022-11-29T12:29:10.963Z,38.4860
2022-11-29T12:30:13.211Z,38.4850
2022-11-29T12:31:15.495Z,38.4680
2022-11-29T12:32:17.733Z,38.4540
2022-11-29T12:33:17.799Z,38.4690
2022-11-29T12:34:22.622Z,38.3330
2022-11-29T12:35:22.347Z,38.4850